Time,TemperatureF,DewpointF,PressureIn,WindDirection,WindDirectionDegrees,WindSpeedMPH,WindSpeedGustMPH,Humidity,HourlyPrecipIn,Conditions,Clouds,dailyrainin,SoftwareType,DateUTC
2013-03-07 00:00:00,6.4,-3.5,30.30,WNW,292,0.0,0.0,63,0.00,CLR,,0.00,WeatherDisplay:10.37,2013-03-07 06:00:00,
2013-03-07 00:05:00,6.3,-3.7,30.30,WNW,292,0.0,0.0,63,0.00,CLR,,0.00,WeatherDisplay:10.37,2013-03-07 06:05:00,
2013-03-07 00:10:00,6.1,-3.8,30.30,NW,315,0.0,1.1,63,0.00,CLR,,0.00,WeatherDisplay:10.37,2013-03-07 06:10:00,
2013-03-07 00:15:00,5.7,-4.2,30.30,NW,315,0.9,1.1,63,0.00,CLR,,0.00,WeatherDisplay:10.37,2013-03-07 06:15:00,
2013-03-07 00:20:00,5.4,-4.5,30.30,NNW,338,1.1,1.6,63,0.00,CLR,,0.00,WeatherDisplay:10.37,2013-03-07 06:20:00,
2013-03-07 00:25:00,5.2,-4.7,30.30,NNW,338,1.4,1.4,63,0.00,CLR,,0.00,WeatherDisplay:10.37,2013-03-07 06:25:00,
2013-03-07 00:30:00,5.0,-4.9,30.30,NNW,338,0.0,0.0,63,0.00,CLR,,0.00,WeatherDisplay:10.37,2013-03-07 06:30:00,
2013-03-07 00:35:00,4.6,-5.2,30.30,NNW,338,0.0,0.0,63,0.00,CLR,,0.00,WeatherDisplay:10.37,2013-03-07 06:35:00,
2013-03-07 00:40:00,4.5,-5.4,30.30,NNW,338,0.9,1.1,63,0.00,CLR,,0.00,WeatherDisplay:10.37,2013-03-07 06:40:00,
2013-03-07 00:45:00,4.6,-5.2,30.30,NNW,338,0.0,0.0,63,0.00,CLR,,0.00,WeatherDisplay:10.37,2013-03-07 06:45:00,
2013-03-07 00:50:00,5.2,-4.7,30.30,NNW,338,0.0,0.0,63,0.00,CLR,,0.00,WeatherDisplay:10.37,2013-03-07 06:50:00,
2013-03-07 00:55:00,5.2,-4.7,30.30,NNW,338,0.0,0.0,63,0.00,CLR,,0.00,WeatherDisplay:10.37,2013-03-07 06:55:00,
2013-03-07 01:00:00,5.4,-4.5,30.30,NW,315,0.0,0.0,63,0.00,CLR,,0.00,WeatherDisplay:10.37,2013-03-07 07:00:00,
2013-03-07 01:05:00,5.0,-4.9,30.30,WNW,292,0.0,0.0,63,0.00,CLR,,0.00,WeatherDisplay:10.37,2013-03-07 07:05:00,
2013-03-07 01:10:00,5.0,-4.9,30.30,WNW,292,0.0,1.4,63,0.00,CLR,,0.00,WeatherDisplay:10.37,2013-03-07 07:10:00,
2013-03-07 01:16:00,4.8,-5.0,30.30,WNW,292,0.0,0.0,63,0.00,CLR,,0.00,WeatherDisplay:10.37,2013-03-07 07:16:00,
2013-03-07 01:21:00,4.5,-5.4,30.30,WNW,292,0.0,0.0,63,0.00,CLR,,0.00,WeatherDisplay:10.37,2013-03-07 07:21:00,
2013-03-07 01:26:00,4.3,-5.5,30.33,NW,315,0.0,2.3,63,0.00,CLR,,0.00,WeatherDisplay:10.37,2013-03-07 07:26:00,
2013-03-07 01:31:00,4.5,-5.4,30.33,NW,315,0.0,0.0,63,0.00,CLR,,0.00,WeatherDisplay:10.37,2013-03-07 07:31:00,
2013-03-07 01:36:00,4.3,-5.5,30.33,NW,315,0.0,0.0,63,0.00,CLR,,0.00,WeatherDisplay:10.37,2013-03-07 07:36:00,
2013-03-07 01:41:00,3.9,-5.9,30.33,NW,315,0.0,0.0,63,0.00,CLR,,0.00,WeatherDisplay:10.37,2013-03-07 07:41:00,
2013-03-07 01:46:00,3.7,-6.1,30.33,NW,315,1.6,2.3,63,0.00,CLR,,0.00,WeatherDisplay:10.37,2013-03-07 07:46:00,
2013-03-07 01:51:00,3.9,-5.9,30.33,NW,315,0.0,0.0,63,0.00,CLR,,0.00,WeatherDisplay:10.37,2013-03-07 07:51:00,
2013-03-07 01:56:00,3.7,-6.1,30.33,NW,315,0.0,0.0,63,0.00,CLR,,0.00,WeatherDisplay:10.37,2013-03-07 07:56:00,
2013-03-07 02:01:00,3.7,-6.1,30.33,NW,315,2.0,2.3,63,0.00,CLR,,0.00,WeatherDisplay:10.37,2013-03-07 08:01:00,
2013-03-07 02:06:00,3.6,-6.2,30.33,NW,315,1.6,2.4,63,0.00,CLR,,0.00,WeatherDisplay:10.37,2013-03-07 08:06:00,
2013-03-07 02:11:00,3.4,-6.4,30.33,NW,315,1.1,2.3,63,0.00,CLR,,0.00,WeatherDisplay:10.37,2013-03-07 08:11:00,
2013-03-07 02:16:00,3.2,-6.6,30.33,NW,315,1.4,2.3,63,0.00,CLR,,0.00,WeatherDisplay:10.37,2013-03-07 08:16:00,
2013-03-07 02:21:00,3.2,-6.6,30.33,NW,315,0.0,0.0,63,0.00,CLR,,0.00,WeatherDisplay:10.37,2013-03-07 08:21:00,
2013-03-07 02:26:00,3.2,-6.6,30.33,NW,315,0.0,1.1,63,0.00,CLR,,0.00,WeatherDisplay:10.37,2013-03-07 08:26:00,
2013-03-07 02:31:00,3.4,-6.4,30.33,North,0,0.0,1.1,63,0.00,CLR,,0.00,WeatherDisplay:10.37,2013-03-07 08:31:00,
2013-03-07 02:36:00,3.2,-6.6,30.33,NE,45,0.0,0.0,63,0.00,CLR,,0.00,WeatherDisplay:10.37,2013-03-07 08:36:00,
2013-03-07 02:41:00,3.2,-6.6,30.33,NW,315,0.0,0.0,63,0.00,CLR,,0.00,WeatherDisplay:10.37,2013-03-07 08:41:00,
2013-03-07 02:46:00,3.2,-6.6,30.33,NW,315,1.1,1.1,63,0.00,CLR,,0.00,WeatherDisplay:10.37,2013-03-07 08:46:00,
2013-03-07 02:51:00,3.6,-6.2,30.33,NNW,338,0.0,0.0,63,0.00,CLR,,0.00,WeatherDisplay:10.37,2013-03-07 08:51:00,
2013-03-07 02:56:00,3.2,-6.6,30.33,NNW,338,0.0,0.0,63,0.00,CLR,,0.00,WeatherDisplay:10.37,2013-03-07 08:56:00,
2013-03-07 03:01:00,2.8,-6.9,30.33,NNW,338,0.0,0.0,63,0.00,CLR,,0.00,WeatherDisplay:10.37,2013-03-07 09:01:00,
2013-03-07 03:06:00,2.8,-6.9,30.33,NNW,338,0.0,0.0,63,0.00,CLR,,0.00,WeatherDisplay:10.37,2013-03-07 09:06:00,
2013-03-07 03:11:00,2.7,-7.1,30.30,NNW,338,0.0,0.0,63,0.00,CLR,,0.00,WeatherDisplay:10.37,2013-03-07 09:11:00,
2013-03-07 03:16:00,2.5,-7.3,30.30,NNW,338,0.0,0.0,63,0.00,CLR,,0.00,WeatherDisplay:10.37,2013-03-07 09:16:00,
2013-03-07 03:22:00,1.9,-7.8,30.30,NNW,338,0.0,0.0,63,0.00,CLR,,0.00,WeatherDisplay:10.37,2013-03-07 09:22:00,
2013-03-07 03:27:00,1.6,-8.1,30.30,NNW,338,1.6,2.4,63,0.00,CLR,,0.00,WeatherDisplay:10.37,2013-03-07 09:27:00,
2013-03-07 03:32:00,1.8,-7.9,30.30,WNW,292,2.0,2.3,63,0.00,CLR,,0.00,WeatherDisplay:10.37,2013-03-07 09:32:00,
2013-03-07 03:37:00,1.8,-7.9,30.30,WNW,292,0.0,0.0,63,0.00,CLR,,0.00,WeatherDisplay:10.37,2013-03-07 09:37:00,
2013-03-07 03:42:00,1.9,-7.8,30.33,NW,315,0.0,0.0,63,0.00,CLR,,0.00,WeatherDisplay:10.37,2013-03-07 09:42:00,
2013-03-07 03:47:00,1.9,-7.8,30.33,NW,315,0.0,0.0,63,0.00,CLR,,0.00,WeatherDisplay:10.37,2013-03-07 09:47:00,
2013-03-07 03:52:00,1.8,-7.9,30.33,NW,315,0.0,0.0,63,0.00,CLR,,0.00,WeatherDisplay:10.37,2013-03-07 09:52:00,
2013-03-07 03:57:00,1.4,-8.3,30.33,NW,315,0.0,0.0,63,0.00,CLR,,0.00,WeatherDisplay:10.37,2013-03-07 09:57:00,
2013-03-07 04:02:00,1.0,-8.6,30.33,NW,315,0.0,0.0,63,0.00,CLR,,0.00,WeatherDisplay:10.37,2013-03-07 10:02:00,
2013-03-07 04:07:00,0.7,-9.0,30.33,NW,315,1.4,2.3,63,0.00,CLR,,0.00,WeatherDisplay:10.37,2013-03-07 10:07:00,
2013-03-07 04:12:00,0.9,-8.8,30.33,NW,315,0.0,1.1,63,0.00,CLR,,0.00,WeatherDisplay:10.37,2013-03-07 10:12:00,
2013-03-07 04:17:00,1.2,-8.5,30.33,NW,315,1.4,2.3,63,0.00,CLR,,0.00,WeatherDisplay:10.37,2013-03-07 10:17:00,
2013-03-07 04:22:00,1.4,-8.3,30.33,NW,315,0.0,0.0,63,0.00,CLR,,0.00,WeatherDisplay:10.37,2013-03-07 10:22:00,
2013-03-07 04:27:00,0.9,-8.8,30.36,NNE,22,0.0,0.0,63,0.00,CLR,,0.00,WeatherDisplay:10.37,2013-03-07 10:27:00,
2013-03-07 04:32:00,0.7,-9.0,30.36,NNE,22,0.0,0.0,63,0.00,CLR,,0.00,WeatherDisplay:10.37,2013-03-07 10:32:00,
2013-03-07 04:37:00,0.7,-9.0,30.36,NNE,22,0.0,0.0,63,0.00,CLR,,0.00,WeatherDisplay:10.37,2013-03-07 10:37:00,
2013-03-07 04:42:00,0.5,-9.1,30.33,NNE,22,0.0,0.0,63,0.00,CLR,,0.00,WeatherDisplay:10.37,2013-03-07 10:42:00,
2013-03-07 04:47:00,0.5,-9.1,30.33,NNW,338,0.0,0.0,63,0.00,CLR,,0.00,WeatherDisplay:10.37,2013-03-07 10:47:00,
2013-03-07 04:52:00,0.9,-8.8,30.33,West,270,0.0,0.0,63,0.00,CLR,,0.00,WeatherDisplay:10.37,2013-03-07 10:52:00,
2013-03-07 04:57:00,0.7,-9.0,30.36,WNW,292,0.0,0.0,63,0.00,CLR,,0.00,WeatherDisplay:10.37,2013-03-07 10:57:00,
2013-03-07 05:02:00,0.5,-9.1,30.36,WNW,292,0.0,0.0,63,0.00,CLR,,0.00,WeatherDisplay:10.37,2013-03-07 11:02:00,
2013-03-07 05:07:00,0.3,-9.3,30.36,West,270,0.0,0.0,63,0.00,CLR,,0.00,WeatherDisplay:10.37,2013-03-07 11:07:00,
2013-03-07 05:12:00,0.3,-9.3,30.36,West,270,0.0,0.0,63,0.00,CLR,,0.00,WeatherDisplay:10.37,2013-03-07 11:12:00,
2013-03-07 05:17:00,0.1,-9.5,30.36,West,270,0.0,0.0,63,0.00,CLR,,0.00,WeatherDisplay:10.37,2013-03-07 11:17:00,
2013-03-07 05:22:00,-0.2,-9.8,30.36,West,270,0.0,0.0,63,0.00,CLR,,0.00,WeatherDisplay:10.37,2013-03-07 11:22:00,
2013-03-07 05:27:00,-0.6,-10.2,30.36,West,270,0.0,0.0,63,0.00,CLR,,0.00,WeatherDisplay:10.37,2013-03-07 11:27:00,
2013-03-07 05:32:00,-0.6,-10.2,30.36,West,270,0.0,0.0,63,0.00,CLR,,0.00,WeatherDisplay:10.37,2013-03-07 11:32:00,
2013-03-07 05:37:00,-0.4,-10.0,30.36,WNW,292,0.0,0.0,63,0.00,CLR,,0.00,WeatherDisplay:10.37,2013-03-07 11:37:00,
2013-03-07 05:42:00,-0.4,-10.0,30.36,WNW,292,0.0,0.0,63,0.00,CLR,,0.00,WeatherDisplay:10.37,2013-03-07 11:42:00,
2013-03-07 05:47:00,-0.6,-10.2,30.36,NW,315,0.0,1.4,63,0.00,CLR,,0.00,WeatherDisplay:10.37,2013-03-07 11:47:00,
2013-03-07 05:52:00,-0.9,-10.5,30.36,North,0,0.0,0.0,63,0.00,CLR,,0.00,WeatherDisplay:10.37,2013-03-07 11:52:00,
2013-03-07 05:57:00,-1.1,-10.7,30.36,North,0,0.0,0.0,63,0.00,CLR,,0.00,WeatherDisplay:10.37,2013-03-07 11:57:00,
2013-03-07 06:02:00,-1.1,-10.7,30.36,North,0,0.0,0.0,63,0.00,CLR,,0.00,WeatherDisplay:10.37,2013-03-07 12:02:00,
2013-03-07 06:07:00,-1.1,-10.7,30.36,NNW,338,0.0,0.0,63,0.00,CLR,,0.00,WeatherDisplay:10.37,2013-03-07 12:07:00,
2013-03-07 06:12:00,-0.9,-10.5,30.36,NNW,338,0.0,0.0,63,0.00,CLR,,0.00,WeatherDisplay:10.37,2013-03-07 12:12:00,
2013-03-07 06:17:00,-1.3,-10.9,30.36,NNW,338,0.0,1.1,63,0.00,CLR,,0.00,WeatherDisplay:10.37,2013-03-07 12:17:00,
2013-03-07 06:22:00,-1.5,-11.0,30.36,NNW,330,0.0,1.0,63,0.00,CLR,,0.00,WeatherDisplay:10.37,2013-03-07 12:22:00,
2013-03-07 06:28:00,-1.3,-10.9,30.36,NW,316,0.0,0.0,63,0.00,CLR,,0.00,WeatherDisplay:10.37,2013-03-07 12:28:00,
2013-03-07 06:33:00,-1.1,-10.7,30.36,NW,315,0.0,1.1,63,0.00,CLR,,0.00,WeatherDisplay:10.37,2013-03-07 12:33:00,
2013-03-07 06:38:00,-0.9,-10.5,30.36,NW,315,0.0,0.0,63,0.00,CLR,,0.00,WeatherDisplay:10.37,2013-03-07 12:38:00,
2013-03-07 06:43:00,-0.4,-10.0,30.33,NW,315,0.0,0.0,63,0.00,CLR,,0.00,WeatherDisplay:10.37,2013-03-07 12:43:00,
2013-03-07 06:48:00,1.4,-8.3,30.33,West,270,1.4,1.6,63,0.00,CLR,,0.00,WeatherDisplay:10.37,2013-03-07 12:48:00,
2013-03-07 06:53:00,3.4,-6.4,30.33,WNW,292,2.0,2.3,63,0.00,CLR,,0.00,WeatherDisplay:10.37,2013-03-07 12:53:00,
2013-03-07 06:58:00,5.7,-4.2,30.36,WNW,292,0.0,0.0,63,0.00,CLR,,0.00,WeatherDisplay:10.37,2013-03-07 12:58:00,
2013-03-07 07:03:00,7.0,-3.0,30.36,WNW,292,0.0,0.0,63,0.00,CLR,,0.00,WeatherDisplay:10.37,2013-03-07 13:03:00,
2013-03-07 07:08:00,6.6,-3.3,30.36,WNW,292,0.0,0.0,63,0.00,CLR,,0.00,WeatherDisplay:10.37,2013-03-07 13:08:00,
2013-03-07 07:13:00,8.1,-1.9,30.36,WNW,292,0.0,0.0,63,0.00,CLR,,0.00,WeatherDisplay:10.37,2013-03-07 13:13:00,
2013-03-07 07:18:00,9.1,-0.9,30.36,WNW,292,0.0,0.0,63,0.00,CLR,,0.00,WeatherDisplay:10.37,2013-03-07 13:18:00,
2013-03-07 07:23:00,10.9,0.8,30.36,WNW,292,0.0,0.0,63,0.00,CLR,,0.00,WeatherDisplay:10.37,2013-03-07 13:23:00,
2013-03-07 07:28:00,13.6,3.4,30.39,WNW,292,0.0,0.0,63,0.00,CLR,,0.00,WeatherDisplay:10.37,2013-03-07 13:28:00,
2013-03-07 07:33:00,15.3,8.2,30.39,WNW,292,0.0,0.0,73,0.00,CLR,,0.00,WeatherDisplay:10.37,2013-03-07 13:33:00,
2013-03-07 07:38:00,15.3,6.9,30.39,West,270,0.0,0.0,69,0.00,CLR,,0.00,WeatherDisplay:10.37,2013-03-07 13:38:00,
2013-03-07 07:43:00,16.5,8.1,30.36,WSW,248,0.0,0.0,69,0.00,CLR,,0.00,WeatherDisplay:10.37,2013-03-07 13:43:00,
2013-03-07 07:48:00,20.1,12.5,30.36,West,270,0.0,0.0,72,0.00,CLR,,0.00,WeatherDisplay:10.37,2013-03-07 13:48:00,
2013-03-07 07:53:00,19.9,10.1,30.36,WSW,248,0.0,0.0,65,0.00,CLR,,0.00,WeatherDisplay:10.37,2013-03-07 13:53:00,
2013-03-07 07:58:00,21.9,10.5,30.39,WSW,248,0.0,0.0,61,0.00,CLR,,0.00,WeatherDisplay:10.37,2013-03-07 13:58:00,
2013-03-07 08:03:00,23.0,11.5,30.39,NNW,338,0.0,0.0,61,0.00,CLR,,0.00,WeatherDisplay:10.37,2013-03-07 14:03:00,
2013-03-07 08:08:00,23.5,10.9,30.39,NNW,338,0.0,0.0,58,0.00,CLR,,0.00,WeatherDisplay:10.37,2013-03-07 14:08:00,
2013-03-07 08:13:00,22.1,5.8,30.39,NNW,338,0.0,0.0,49,0.00,CLR,,0.00,WeatherDisplay:10.37,2013-03-07 14:13:00,
2013-03-07 08:18:00,24.4,9.7,30.39,ESE,112,0.0,0.0,53,0.00,CLR,,0.00,WeatherDisplay:10.37,2013-03-07 14:18:00,
2013-03-07 08:23:00,26.8,12.8,30.39,ESE,112,0.0,0.0,55,0.00,CLR,,0.00,WeatherDisplay:10.37,2013-03-07 14:23:00,
2013-03-07 08:28:00,28.4,13.0,30.39,ESE,112,0.0,0.0,52,0.00,CLR,,0.00,WeatherDisplay:10.37,2013-03-07 14:28:00,
2013-03-07 08:33:00,27.0,9.9,30.39,ESE,112,0.0,0.0,48,0.00,CLR,,0.00,WeatherDisplay:10.37,2013-03-07 14:33:00,
2013-03-07 08:38:00,29.7,11.4,30.39,ESE,112,0.0,0.0,46,0.00,CLR,,0.00,WeatherDisplay:10.37,2013-03-07 14:38:00,
2013-03-07 08:44:00,30.7,11.9,30.39,ESE,112,0.0,0.0,45,0.00,CLR,,0.00,WeatherDisplay:10.37,2013-03-07 14:44:00,
2013-03-07 08:49:00,31.8,12.4,30.39,ESE,112,0.0,0.0,44,0.00,CLR,,0.00,WeatherDisplay:10.37,2013-03-07 14:49:00,
2013-03-07 08:54:00,31.3,10.8,30.39,ESE,112,0.0,0.0,42,0.00,CLR,,0.00,WeatherDisplay:10.37,2013-03-07 14:54:00,
2013-03-07 08:59:00,34.0,13.8,30.39,ESE,112,0.0,0.0,43,0.00,CLR,,0.00,WeatherDisplay:10.37,2013-03-07 14:59:00,
2013-03-07 09:04:00,34.2,12.9,30.39,ESE,112,0.0,0.0,41,0.00,CLR,,0.00,WeatherDisplay:10.37,2013-03-07 15:04:00,
2013-03-07 09:09:00,35.1,13.7,30.39,ESE,112,0.0,0.0,41,0.00,CLR,,0.00,WeatherDisplay:10.37,2013-03-07 15:09:00,
2013-03-07 09:14:00,35.8,14.9,30.39,West,270,1.1,2.3,42,0.00,CLR,,0.00,WeatherDisplay:10.37,2013-03-07 15:14:00,
2013-03-07 09:19:00,37.2,16.2,30.39,West,270,1.1,3.5,42,0.00,CLR,,0.00,WeatherDisplay:10.37,2013-03-07 15:19:00,
2013-03-07 09:24:00,37.2,16.2,30.39,SSW,202,1.4,2.3,42,0.00,CLR,,0.00,WeatherDisplay:10.37,2013-03-07 15:24:00,
2013-03-07 09:29:00,38.3,16.1,30.39,ESE,112,2.4,2.6,40,0.00,CLR,,0.00,WeatherDisplay:10.37,2013-03-07 15:29:00,
2013-03-07 09:34:00,36.9,14.8,30.39,SE,135,3.1,4.6,40,0.00,CLR,,0.00,WeatherDisplay:10.37,2013-03-07 15:34:00,
2013-03-07 09:39:00,36.9,14.8,30.39,SSE,158,2.4,3.5,40,0.00,CLR,,0.00,WeatherDisplay:10.37,2013-03-07 15:39:00,
2013-03-07 09:44:00,35.6,13.6,30.39,SE,135,3.8,4.6,40,0.00,CLR,,0.00,WeatherDisplay:10.37,2013-03-07 15:44:00,
2013-03-07 09:49:00,36.7,14.6,30.39,ESE,112,2.4,3.5,40,0.00,CLR,,0.00,WeatherDisplay:10.37,2013-03-07 15:49:00,
2013-03-07 09:55:00,36.9,14.8,30.39,ESE,112,2.0,2.3,40,0.00,CLR,,0.00,WeatherDisplay:10.37,2013-03-07 15:55:00,
2013-03-07 10:00:00,36.1,14.1,30.39,SSE,158,2.0,2.3,40,0.00,CLR,,0.00,WeatherDisplay:10.37,2013-03-07 16:00:00,
2013-03-07 10:05:00,39.2,16.3,30.39,ESE,112,2.4,3.5,39,0.00,CLR,,0.00,WeatherDisplay:10.37,2013-03-07 16:05:00,
2013-03-07 10:10:00,38.8,16.5,30.39,South,180,1.1,2.3,40,0.00,CLR,,0.00,WeatherDisplay:10.37,2013-03-07 16:10:00,
2013-03-07 10:15:00,39.4,16.4,30.39,East,90,1.6,3.5,39,0.00,CLR,,0.00,WeatherDisplay:10.37,2013-03-07 16:15:00,
2013-03-07 10:20:00,39.6,16.6,30.39,South,180,2.6,3.5,39,0.00,CLR,,0.00,WeatherDisplay:10.37,2013-03-07 16:20:00,
2013-03-07 10:25:00,38.7,15.8,30.39,SE,135,3.8,4.6,39,0.00,CLR,,0.00,WeatherDisplay:10.37,2013-03-07 16:25:00,
2013-03-07 10:30:00,38.5,15.6,30.39,SE,135,3.6,4.6,39,0.00,CLR,,0.00,WeatherDisplay:10.37,2013-03-07 16:30:00,
2013-03-07 10:35:00,39.0,16.1,30.39,South,180,2.9,3.5,39,0.00,CLR,,0.00,WeatherDisplay:10.37,2013-03-07 16:35:00,
2013-03-07 10:40:00,39.2,16.3,30.39,SE,135,2.2,3.5,39,0.00,CLR,,0.00,WeatherDisplay:10.37,2013-03-07 16:40:00,
2013-03-07 10:45:00,39.9,16.9,30.39,ESE,112,2.6,3.8,39,0.00,CLR,,0.00,WeatherDisplay:10.37,2013-03-07 16:45:00,
2013-03-07 10:50:00,38.8,16.0,30.39,SE,135,2.9,3.5,39,0.00,CLR,,0.00,WeatherDisplay:10.37,2013-03-07 16:50:00,
2013-03-07 10:55:00,38.8,16.0,30.36,South,180,2.2,4.6,39,0.00,CLR,,0.00,WeatherDisplay:10.37,2013-03-07 16:55:00,
2013-03-07 11:00:00,39.6,16.0,30.36,SSW,202,3.8,4.6,38,0.00,CLR,,0.00,WeatherDisplay:10.37,2013-03-07 17:00:00,
2013-03-07 11:05:00,39.9,16.3,30.36,SE,135,2.4,3.6,38,0.00,CLR,,0.00,WeatherDisplay:10.37,2013-03-07 17:05:00,
2013-03-07 11:10:00,39.7,15.6,30.36,SSE,158,4.5,4.6,37,0.00,CLR,,0.00,WeatherDisplay:10.37,2013-03-07 17:10:00,
2013-03-07 11:15:00,40.6,17.6,30.36,SW,225,3.6,5.8,39,0.00,CLR,,0.00,WeatherDisplay:10.37,2013-03-07 17:15:00,
2013-03-07 11:21:00,41.2,17.5,30.36,SSW,202,2.6,3.8,38,0.00,CLR,,0.00,WeatherDisplay:10.37,2013-03-07 17:21:00,
2013-03-07 11:26:00,41.7,17.9,30.36,West,270,2.0,3.5,38,0.00,CLR,,0.00,WeatherDisplay:10.37,2013-03-07 17:26:00,
2013-03-07 11:31:00,41.7,17.9,30.36,WSW,248,2.9,4.6,38,0.00,CLR,,0.00,WeatherDisplay:10.37,2013-03-07 17:31:00,
2013-03-07 11:36:00,41.9,18.1,30.36,WSW,248,2.2,3.5,38,0.00,CLR,,0.00,WeatherDisplay:10.37,2013-03-07 17:36:00,
2013-03-07 11:41:00,42.3,18.4,30.36,SSW,202,2.0,3.5,38,0.00,CLR,,0.00,WeatherDisplay:10.37,2013-03-07 17:41:00,
2013-03-07 11:46:00,41.9,18.1,30.36,South,180,1.4,2.3,38,0.00,CLR,,0.00,WeatherDisplay:10.37,2013-03-07 17:46:00,
2013-03-07 11:51:00,41.2,16.8,30.36,South,180,1.6,3.1,37,0.00,CLR,,0.00,WeatherDisplay:10.37,2013-03-07 17:51:00,
2013-03-07 11:56:00,41.9,17.5,30.33,SW,225,2.0,2.3,37,0.00,CLR,,0.00,WeatherDisplay:10.37,2013-03-07 17:56:00,
2013-03-07 12:01:00,41.4,17.0,30.33,SW,225,1.6,3.3,37,0.00,CLR,,0.00,WeatherDisplay:10.37,2013-03-07 18:01:00,
2013-03-07 12:06:00,42.3,17.2,30.33,West,270,2.4,2.4,36,0.00,CLR,,0.00,WeatherDisplay:10.37,2013-03-07 18:06:00,
2013-03-07 12:11:00,43.0,17.2,30.36,SSW,202,2.0,3.5,35,0.00,CLR,,0.00,WeatherDisplay:10.37,2013-03-07 18:11:00,
2013-03-07 12:16:00,41.7,16.0,30.36,SSE,158,2.9,3.6,35,0.00,CLR,,0.00,WeatherDisplay:10.37,2013-03-07 18:16:00,
2013-03-07 12:21:00,42.8,16.3,30.36,South,180,2.0,2.3,34,0.00,CLR,,0.00,WeatherDisplay:10.37,2013-03-07 18:21:00,
2013-03-07 12:26:00,43.0,16.5,30.33,SE,135,1.6,2.3,34,0.00,CLR,,0.00,WeatherDisplay:10.37,2013-03-07 18:26:00,
2013-03-07 12:31:00,42.4,16.0,30.33,ESE,112,2.2,3.5,34,0.00,CLR,,0.00,WeatherDisplay:10.37,2013-03-07 18:31:00,
2013-03-07 12:36:00,42.3,15.9,30.33,ESE,112,2.9,3.5,34,0.00,CLR,,0.00,WeatherDisplay:10.37,2013-03-07 18:36:00,
2013-03-07 12:41:00,42.3,15.9,30.33,SE,135,2.2,2.4,34,0.00,CLR,,0.00,WeatherDisplay:10.37,2013-03-07 18:41:00,
2013-03-07 12:46:00,43.7,17.1,30.33,WSW,248,1.4,2.3,34,0.00,CLR,,0.00,WeatherDisplay:10.37,2013-03-07 18:46:00,
2013-03-07 12:51:00,45.1,18.4,30.33,South,180,1.4,2.3,34,0.00,CLR,,0.00,WeatherDisplay:10.37,2013-03-07 18:51:00,
2013-03-07 12:56:00,46.2,19.4,30.36,SSW,202,0.0,2.3,34,0.00,CLR,,0.00,WeatherDisplay:10.37,2013-03-07 18:56:00,
2013-03-07 13:01:00,46.0,18.5,30.36,SW,225,0.9,1.1,33,0.00,CLR,,0.00,WeatherDisplay:10.37,2013-03-07 19:01:00,
2013-03-07 13:06:00,46.2,18.7,30.36,SSW,202,0.9,2.3,33,0.00,CLR,,0.00,WeatherDisplay:10.37,2013-03-07 19:06:00,
2013-03-07 13:11:00,46.8,17.7,30.36,West,270,0.9,1.4,31,0.00,CLR,,0.00,WeatherDisplay:10.37,2013-03-07 19:11:00,
2013-03-07 13:16:00,46.4,17.4,30.36,WSW,248,0.0,2.0,31,0.00,CLR,,0.00,WeatherDisplay:10.37,2013-03-07 19:16:00,
2013-03-07 13:21:00,46.8,18.4,30.36,WSW,248,0.9,2.3,32,0.00,CLR,,0.00,WeatherDisplay:10.37,2013-03-07 19:21:00,
2013-03-07 13:26:00,45.3,17.1,30.36,WSW,248,1.6,2.3,32,0.00,CLR,,0.00,WeatherDisplay:10.37,2013-03-07 19:26:00,
2013-03-07 13:31:00,44.8,16.7,30.36,SW,225,1.6,3.5,32,0.00,CLR,,0.00,WeatherDisplay:10.37,2013-03-07 19:31:00,
2013-03-07 13:36:00,43.7,15.7,30.36,SSW,202,1.1,3.5,32,0.02,RA,,0.02,WeatherDisplay:10.37,2013-03-07 19:36:00,
2013-03-07 13:41:00,44.6,15.8,30.36,SSW,202,1.1,1.1,31,0.02,RA,,0.02,WeatherDisplay:10.37,2013-03-07 19:41:00,
2013-03-07 13:46:00,43.3,15.4,30.36,WSW,248,1.1,2.3,32,0.02,,,0.02,WeatherDisplay:10.37,2013-03-07 19:46:00,
2013-03-07 13:52:00,42.8,14.2,30.36,ESE,112,3.1,3.5,31,0.04,RA,,0.04,WeatherDisplay:10.37,2013-03-07 19:52:00,
2013-03-07 13:57:00,42.6,14.8,30.36,SW,225,0.0,2.3,32,0.04,RA,,0.04,WeatherDisplay:10.37,2013-03-07 19:57:00,
2013-03-07 14:02:00,43.7,15.7,30.36,SSE,158,1.4,2.3,32,0.04,CLR,,0.04,WeatherDisplay:10.37,2013-03-07 20:02:00,
2013-03-07 14:07:00,42.6,14.8,30.36,SW,225,0.0,1.1,32,0.06,RA,,0.06,WeatherDisplay:10.37,2013-03-07 20:07:00,
2013-03-07 14:12:00,42.4,14.6,30.36,SSE,158,1.1,2.3,32,0.06,RA,,0.06,WeatherDisplay:10.37,2013-03-07 20:12:00,
2013-03-07 14:17:00,44.1,16.0,30.36,WSW,248,1.1,1.1,32,0.06,,,0.06,WeatherDisplay:10.37,2013-03-07 20:17:00,
2013-03-07 14:22:00,44.2,15.5,30.36,SSE,158,0.9,1.1,31,0.06,CLR,,0.06,WeatherDisplay:10.37,2013-03-07 20:22:00,
2013-03-07 14:27:00,41.4,13.7,30.33,South,180,0.0,3.5,32,0.08,RA,,0.08,WeatherDisplay:10.37,2013-03-07 20:27:00,
2013-03-07 14:32:00,41.2,13.5,30.33,SSW,196,1.0,3.0,32,0.00,RA,,0.08,WeatherDisplay:10.37,2013-03-07 20:32:00,
2013-03-07 14:37:00,41.7,14.0,30.33,SW,225,0.0,1.1,32,0.06,,,0.08,WeatherDisplay:10.37,2013-03-07 20:37:00,
2013-03-07 14:43:00,43.3,15.4,30.36,SW,226,1.0,2.0,32,0.00,CLR,,0.08,WeatherDisplay:10.37,2013-03-07 20:43:00,
2013-03-07 14:48:00,42.8,14.2,30.36,SSW,202,1.4,2.3,31,0.06,CLR,,0.08,WeatherDisplay:10.37,2013-03-07 20:48:00,
2013-03-07 14:53:00,43.3,14.7,30.36,SW,220,0.0,2.0,31,0.00,RA,,0.10,WeatherDisplay:10.37,2013-03-07 20:53:00,
2013-03-07 14:58:00,41.4,12.9,30.33,SSW,197,2.0,6.0,31,0.00,RA,,0.10,WeatherDisplay:10.37,2013-03-07 20:58:00,
2013-03-07 15:03:00,40.3,12.7,30.33,South,188,0.0,6.0,32,0.00,CLR,,0.10,WeatherDisplay:10.37,2013-03-07 21:03:00,
2013-03-07 15:08:00,42.4,14.6,30.33,SSW,205,1.0,3.0,32,0.00,CLR,,0.10,WeatherDisplay:10.37,2013-03-07 21:08:00,
2013-03-07 15:13:00,42.1,14.3,30.36,WSW,248,1.6,3.5,32,0.04,CLR,,0.10,WeatherDisplay:10.37,2013-03-07 21:13:00,
2013-03-07 15:18:00,40.6,13.0,30.36,SSW,201,2.0,5.0,32,0.00,CLR,,0.10,WeatherDisplay:10.37,2013-03-07 21:18:00,
2013-03-07 15:23:00,40.4,12.8,30.36,South,186,1.0,3.0,32,0.00,CLR,,0.10,WeatherDisplay:10.37,2013-03-07 21:23:00,
2013-03-07 15:28:00,40.5,12.9,30.33,SSW,212,1.0,5.0,32,0.00,RA,,0.12,WeatherDisplay:10.37,2013-03-07 21:28:00,
2013-03-07 15:33:00,41.4,13.7,30.33,SSE,158,1.1,1.1,32,0.04,RA,,0.12,WeatherDisplay:10.37,2013-03-07 21:33:00,
2013-03-07 15:38:00,40.6,13.0,30.33,SW,231,1.0,6.0,32,0.00,CLR,,0.12,WeatherDisplay:10.37,2013-03-07 21:38:00,
2013-03-07 15:43:00,40.6,13.0,30.33,SW,231,0.0,2.0,32,0.00,CLR,,0.12,WeatherDisplay:10.37,2013-03-07 21:43:00,
2013-03-07 15:48:00,40.7,13.1,30.33,SW,235,1.0,3.0,32,0.00,CLR,,0.12,WeatherDisplay:10.37,2013-03-07 21:48:00,
2013-03-07 15:53:00,39.9,12.4,30.33,SW,225,0.0,2.6,32,0.02,CLR,,0.12,WeatherDisplay:10.37,2013-03-07 21:53:00,
2013-03-07 15:58:00,40.8,13.1,30.33,SW,216,1.0,3.0,32,0.00,CLR,,0.12,WeatherDisplay:10.37,2013-03-07 21:58:00,
2013-03-07 16:03:00,40.7,13.1,30.33,SSW,212,0.0,2.0,32,0.00,CLR,,0.12,WeatherDisplay:10.37,2013-03-07 22:03:00,
2013-03-07 16:08:00,41.2,13.5,30.33,SSW,200,0.0,1.0,32,0.00,CLR,,0.12,WeatherDisplay:10.37,2013-03-07 22:08:00,
2013-03-07 16:13:00,40.9,13.2,30.33,South,184,0.0,4.0,32,0.00,CLR,,0.12,WeatherDisplay:10.37,2013-03-07 22:13:00,
2013-03-07 16:18:00,40.1,12.6,30.33,ESE,110,2.0,3.0,32,0.00,CLR,,0.12,WeatherDisplay:10.37,2013-03-07 22:18:00,
2013-03-07 16:23:00,39.0,11.6,30.33,SE,132,1.0,5.0,32,0.00,CLR,,0.12,WeatherDisplay:10.37,2013-03-07 22:23:00,
2013-03-07 16:27:00,39.2,11.8,30.33,ESE,112,2.6,3.5,32,0.00,CLR,,0.12,WeatherDisplay:10.37,2013-03-07 22:27:00,
2013-03-07 16:32:00,38.5,11.1,30.33,SE,135,2.2,3.5,32,0.00,CLR,,0.12,WeatherDisplay:10.37,2013-03-07 22:32:00,
2013-03-07 16:38:00,38.1,10.8,30.33,ESE,112,2.0,2.9,32,0.00,CLR,,0.12,WeatherDisplay:10.37,2013-03-07 22:38:00,
2013-03-07 16:43:00,37.9,10.6,30.33,ESE,110,2.0,3.0,32,0.00,CLR,,0.12,WeatherDisplay:10.37,2013-03-07 22:43:00,
2013-03-07 16:48:00,37.6,10.3,30.33,ESE,112,2.2,2.4,32,0.00,CLR,,0.12,WeatherDisplay:10.37,2013-03-07 22:48:00,
2013-03-07 16:53:00,37.2,10.7,30.33,ENE,68,2.0,2.3,33,0.00,CLR,,0.12,WeatherDisplay:10.37,2013-03-07 22:53:00,
2013-03-07 16:58:00,37.0,10.5,30.33,ESE,116,2.0,3.0,33,0.00,CLR,,0.12,WeatherDisplay:10.37,2013-03-07 22:58:00,
2013-03-07 17:03:00,36.1,9.8,30.33,SSE,158,3.0,5.0,33,0.00,CLR,,0.12,WeatherDisplay:10.37,2013-03-07 23:03:00,
2013-03-07 17:08:00,35.7,9.3,30.33,SSE,156,1.0,4.0,33,0.00,CLR,,0.12,WeatherDisplay:10.37,2013-03-07 23:08:00,
2013-03-07 17:13:00,35.1,9.5,30.33,ESE,112,2.2,2.3,34,0.00,CLR,,0.12,WeatherDisplay:10.37,2013-03-07 23:13:00,
2013-03-07 17:18:00,34.9,9.3,30.33,ESE,112,0.0,0.0,34,0.00,CLR,,0.12,WeatherDisplay:10.37,2013-03-07 23:18:00,
2013-03-07 17:23:00,34.3,8.8,30.33,ESE,112,0.0,0.0,34,0.00,CLR,,0.12,WeatherDisplay:10.37,2013-03-07 23:23:00,
2013-03-07 17:28:00,33.6,8.2,30.33,ESE,112,0.0,0.0,34,0.00,CLR,,0.12,WeatherDisplay:10.37,2013-03-07 23:28:00,
2013-03-07 17:33:00,32.9,8.2,30.33,ESE,112,0.0,0.0,35,0.00,CLR,,0.12,WeatherDisplay:10.37,2013-03-07 23:33:00,
2013-03-07 17:38:00,32.5,7.9,30.33,ESE,112,0.0,0.0,35,0.00,CLR,,0.12,WeatherDisplay:10.37,2013-03-07 23:38:00,
2013-03-07 17:43:00,32.0,7.4,30.33,ESE,112,0.0,0.0,35,0.00,CLR,,0.12,WeatherDisplay:10.37,2013-03-07 23:43:00,
2013-03-07 17:48:00,31.3,6.8,30.33,ESE,112,0.0,0.0,35,0.00,CLR,,0.12,WeatherDisplay:10.37,2013-03-07 23:48:00,
2013-03-07 17:53:00,30.7,6.9,30.33,ESE,112,0.0,0.0,36,0.00,CLR,,0.12,WeatherDisplay:10.37,2013-03-07 23:53:00,
2013-03-07 17:58:00,29.8,6.1,30.33,ESE,112,0.0,0.0,36,0.00,CLR,,0.12,WeatherDisplay:10.37,2013-03-07 23:58:00,
2013-03-07 18:03:00,28.8,6.3,30.33,ESE,112,0.0,0.0,38,0.00,CLR,,0.12,WeatherDisplay:10.37,2013-03-08 00:03:00,
2013-03-07 18:08:00,27.7,7.0,30.33,ESE,112,0.0,0.0,41,0.00,CLR,,0.12,WeatherDisplay:10.37,2013-03-08 00:08:00,
2013-03-07 18:13:00,26.8,6.2,30.33,ESE,112,0.0,0.0,41,0.00,CLR,,0.12,WeatherDisplay:10.37,2013-03-08 00:13:00,
2013-03-07 18:18:00,26.1,6.1,30.33,ESE,112,0.0,0.0,42,0.00,CLR,,0.12,WeatherDisplay:10.37,2013-03-08 00:18:00,
2013-03-07 18:23:00,25.7,5.7,30.33,ESE,112,0.0,0.0,42,0.00,CLR,,0.12,WeatherDisplay:10.37,2013-03-08 00:23:00,
2013-03-07 18:28:00,25.2,5.2,30.36,West,270,2.0,2.3,42,0.00,CLR,,0.12,WeatherDisplay:10.37,2013-03-08 00:28:00,
2013-03-07 18:33:00,24.6,5.3,30.36,West,270,0.0,0.0,43,0.00,CLR,,0.12,WeatherDisplay:10.37,2013-03-08 00:33:00,
2013-03-07 18:38:00,24.1,5.3,30.36,West,270,0.0,0.0,44,0.00,CLR,,0.12,WeatherDisplay:10.37,2013-03-08 00:38:00,
2013-03-07 18:43:00,23.4,4.6,30.36,West,270,0.0,0.0,44,0.00,CLR,,0.12,WeatherDisplay:10.37,2013-03-08 00:43:00,
2013-03-07 18:48:00,22.8,4.6,30.36,West,270,0.0,0.0,45,0.00,CLR,,0.12,WeatherDisplay:10.37,2013-03-08 00:48:00,
2013-03-07 18:53:00,22.5,4.3,30.36,WNW,292,1.6,2.3,45,0.00,CLR,,0.12,WeatherDisplay:10.37,2013-03-08 00:53:00,
2013-03-07 18:58:00,22.3,4.6,30.36,WNW,292,0.0,0.0,46,0.00,CLR,,0.12,WeatherDisplay:10.37,2013-03-08 00:58:00,
2013-03-07 19:03:00,21.9,4.3,30.36,WNW,292,0.0,0.0,46,0.00,CLR,,0.12,WeatherDisplay:10.37,2013-03-08 01:03:00,
2013-03-07 19:08:00,21.6,4.4,30.36,WNW,292,0.0,0.0,47,0.00,CLR,,0.12,WeatherDisplay:10.37,2013-03-08 01:08:00,
2013-03-07 19:13:00,21.2,4.5,30.36,WNW,292,0.0,1.1,48,0.00,CLR,,0.12,WeatherDisplay:10.37,2013-03-08 01:13:00,
2013-03-07 19:18:00,21.0,4.4,30.36,WNW,292,0.0,0.0,48,0.00,CLR,,0.12,WeatherDisplay:10.37,2013-03-08 01:18:00,
2013-03-07 19:23:00,20.3,3.7,30.36,WNW,292,0.0,0.0,48,0.00,CLR,,0.12,WeatherDisplay:10.37,2013-03-08 01:23:00,
2013-03-07 19:28:00,19.9,3.4,30.39,WNW,292,0.0,0.0,48,0.00,CLR,,0.12,WeatherDisplay:10.37,2013-03-08 01:28:00,
2013-03-07 19:33:00,19.6,3.0,30.39,WNW,292,0.0,0.0,48,0.00,CLR,,0.12,WeatherDisplay:10.37,2013-03-08 01:33:00,
2013-03-07 19:38:00,19.8,4.5,30.39,WNW,292,0.0,0.0,51,0.00,CLR,,0.12,WeatherDisplay:10.37,2013-03-08 01:38:00,
2013-03-07 19:43:00,19.4,4.6,30.36,WNW,292,0.0,0.0,52,0.00,CLR,,0.12,WeatherDisplay:10.37,2013-03-08 01:43:00,
2013-03-07 19:48:00,19.4,4.2,30.36,WNW,292,0.0,0.0,51,0.00,CLR,,0.12,WeatherDisplay:10.37,2013-03-08 01:48:00,
2013-03-07 19:53:00,19.2,4.9,30.36,WNW,292,0.0,0.0,53,0.00,CLR,,0.12,WeatherDisplay:10.37,2013-03-08 01:53:00,
2013-03-07 19:58:00,18.5,4.2,30.36,WNW,292,0.0,0.0,53,0.00,CLR,,0.12,WeatherDisplay:10.37,2013-03-08 01:58:00,
2013-03-07 20:03:00,18.1,4.3,30.36,WNW,292,0.0,0.0,54,0.00,CLR,,0.12,WeatherDisplay:10.37,2013-03-08 02:03:00,
2013-03-07 20:08:00,17.6,3.8,30.36,WNW,292,0.0,0.0,54,0.00,CLR,,0.12,WeatherDisplay:10.37,2013-03-08 02:08:00,
2013-03-07 20:13:00,17.1,3.6,30.36,WNW,292,0.0,0.0,55,0.00,CLR,,0.12,WeatherDisplay:10.37,2013-03-08 02:13:00,
2013-03-07 20:18:00,17.1,3.3,30.36,WNW,292,0.0,0.0,54,0.00,CLR,,0.12,WeatherDisplay:10.37,2013-03-08 02:18:00,
2013-03-07 20:23:00,16.7,3.3,30.36,WNW,292,0.0,0.0,55,0.00,CLR,,0.12,WeatherDisplay:10.37,2013-03-08 02:23:00,
2013-03-07 20:29:00,16.5,3.1,30.36,WNW,292,0.0,0.0,55,0.00,CLR,,0.12,WeatherDisplay:10.37,2013-03-08 02:29:00,
2013-03-07 20:34:00,16.2,2.8,30.36,WNW,292,0.0,0.0,55,0.00,CLR,,0.12,WeatherDisplay:10.37,2013-03-08 02:34:00,
2013-03-07 20:39:00,15.8,2.5,30.36,WNW,292,0.0,0.0,55,0.00,CLR,,0.12,WeatherDisplay:10.37,2013-03-08 02:39:00,
2013-03-07 20:44:00,15.8,2.9,30.36,WNW,292,0.0,0.0,56,0.00,CLR,,0.12,WeatherDisplay:10.37,2013-03-08 02:44:00,
2013-03-07 20:49:00,15.4,2.5,30.36,WNW,292,0.0,0.0,56,0.00,CLR,,0.12,WeatherDisplay:10.37,2013-03-08 02:49:00,
2013-03-07 20:54:00,15.1,2.2,30.36,WNW,292,0.0,0.0,56,0.00,CLR,,0.12,WeatherDisplay:10.37,2013-03-08 02:54:00,
2013-03-07 20:59:00,14.7,1.8,30.36,WNW,292,0.0,0.0,56,0.00,CLR,,0.12,WeatherDisplay:10.37,2013-03-08 02:59:00,
2013-03-07 21:04:00,14.4,1.5,30.36,WNW,292,0.0,0.0,56,0.00,CLR,,0.12,WeatherDisplay:10.37,2013-03-08 03:04:00,
2013-03-07 21:09:00,14.4,1.9,30.36,WNW,292,0.0,0.0,57,0.00,CLR,,0.12,WeatherDisplay:10.37,2013-03-08 03:09:00,
2013-03-07 21:14:00,14.4,1.9,30.36,WNW,292,0.0,0.0,57,0.00,CLR,,0.12,WeatherDisplay:10.37,2013-03-08 03:14:00,
2013-03-07 21:19:00,14.2,2.1,30.36,WNW,292,0.0,0.0,58,0.00,CLR,,0.12,WeatherDisplay:10.37,2013-03-08 03:19:00,
2013-03-07 21:24:00,14.2,2.8,30.36,WNW,292,0.0,0.0,60,0.00,CLR,,0.12,WeatherDisplay:10.37,2013-03-08 03:24:00,
2013-03-07 21:29:00,14.4,2.6,30.36,WNW,292,0.0,0.0,59,0.00,CLR,,0.12,WeatherDisplay:10.37,2013-03-08 03:29:00,
2013-03-07 21:34:00,13.8,2.1,30.36,North,0,0.0,0.0,59,0.00,CLR,,0.12,WeatherDisplay:10.37,2013-03-08 03:34:00,
2013-03-07 21:39:00,14.5,2.4,30.36,East,90,0.9,2.0,58,0.00,CLR,,0.12,WeatherDisplay:10.37,2013-03-08 03:39:00,
2013-03-07 21:44:00,15.8,5.8,30.36,ESE,112,2.2,3.5,64,0.00,CLR,,0.12,WeatherDisplay:10.37,2013-03-08 03:44:00,
2013-03-07 21:49:00,17.1,9.3,30.36,SE,135,2.4,3.1,71,0.00,CLR,,0.12,WeatherDisplay:10.37,2013-03-08 03:49:00,
2013-03-07 21:54:00,17.8,10.6,30.36,ESE,112,1.6,2.4,73,0.00,CLR,,0.12,WeatherDisplay:10.37,2013-03-08 03:54:00,
2013-03-07 21:59:00,17.8,10.3,30.36,ESE,112,2.4,3.5,72,0.00,CLR,,0.12,WeatherDisplay:10.37,2013-03-08 03:59:00,
2013-03-07 22:04:00,18.0,10.1,30.36,ESE,112,1.6,2.4,71,0.00,CLR,,0.12,WeatherDisplay:10.37,2013-03-08 04:04:00,
2013-03-07 22:09:00,18.5,10.7,30.33,ESE,112,2.6,2.6,71,0.00,CLR,,0.12,WeatherDisplay:10.37,2013-03-08 04:09:00,
2013-03-07 22:14:00,20.3,13.3,30.33,SSW,202,5.4,6.9,74,0.00,CLR,,0.12,WeatherDisplay:10.37,2013-03-08 04:14:00,
2013-03-07 22:20:00,20.7,13.1,30.33,ESE,112,1.4,3.5,72,0.00,CLR,,0.12,WeatherDisplay:10.37,2013-03-08 04:20:00,
2013-03-07 22:25:00,20.3,11.4,30.36,ESE,112,1.1,1.4,68,0.00,CLR,,0.12,WeatherDisplay:10.37,2013-03-08 04:25:00,
2013-03-07 22:30:00,19.8,9.9,30.36,SE,135,0.0,0.0,65,0.00,CLR,,0.12,WeatherDisplay:10.37,2013-03-08 04:30:00,
2013-03-07 22:35:00,19.4,8.8,30.36,SE,135,0.0,0.0,63,0.00,CLR,,0.12,WeatherDisplay:10.37,2013-03-08 04:35:00,
2013-03-07 22:40:00,19.0,8.1,30.36,South,180,0.0,0.0,62,0.00,CLR,,0.12,WeatherDisplay:10.37,2013-03-08 04:40:00,
2013-03-07 22:45:00,19.0,8.1,30.36,SW,225,0.0,0.0,62,0.00,CLR,,0.12,WeatherDisplay:10.37,2013-03-08 04:45:00,
2013-03-07 22:50:00,19.4,8.8,30.36,SSE,158,1.4,3.5,63,0.00,CLR,,0.12,WeatherDisplay:10.37,2013-03-08 04:50:00,
2013-03-07 22:55:00,20.5,11.6,30.36,South,180,3.8,5.8,68,0.00,CLR,,0.12,WeatherDisplay:10.37,2013-03-08 04:55:00,
2013-03-07 23:00:00,20.7,11.4,30.36,East,90,2.2,2.4,67,0.00,CLR,,0.12,WeatherDisplay:10.37,2013-03-08 05:00:00,
2013-03-07 23:03:00,20.3,10.7,30.36,ESE,112,2.2,2.3,66,0.00,CLR,,0.12,WeatherDisplay:10.37,2013-03-08 05:03:00,
2013-03-07 23:08:00,19.9,9.7,30.36,ESE,112,1.6,2.3,64,0.00,CLR,,0.12,WeatherDisplay:10.37,2013-03-08 05:08:00,
2013-03-07 23:13:00,19.8,9.5,30.36,ESE,112,1.1,1.4,64,0.00,CLR,,0.12,WeatherDisplay:10.37,2013-03-08 05:13:00,
2013-03-07 23:18:00,19.9,9.7,30.36,SE,135,2.0,2.3,64,0.00,CLR,,0.12,WeatherDisplay:10.37,2013-03-08 05:18:00,
2013-03-07 23:23:00,20.3,10.4,30.36,SE,135,2.2,3.5,65,0.00,CLR,,0.12,WeatherDisplay:10.37,2013-03-08 05:23:00,
2013-03-07 23:28:00,20.7,11.4,30.33,South,180,2.6,3.1,67,0.00,CLR,,0.12,WeatherDisplay:10.37,2013-03-08 05:28:00,
2013-03-07 23:33:00,20.7,11.4,30.33,SE,135,1.4,2.3,67,0.00,CLR,,0.12,WeatherDisplay:10.37,2013-03-08 05:33:00,
2013-03-07 23:38:00,20.1,10.2,30.33,ESE,112,0.9,1.4,65,0.00,CLR,,0.12,WeatherDisplay:10.37,2013-03-08 05:38:00,
2013-03-07 23:43:00,19.0,8.9,30.36,ESE,112,0.9,1.6,64,0.00,CLR,,0.12,WeatherDisplay:10.37,2013-03-08 05:43:00,
2013-03-07 23:48:00,18.7,8.2,30.36,ESE,112,1.1,1.4,63,0.00,CLR,,0.12,WeatherDisplay:10.37,2013-03-08 05:48:00,
2013-03-07 23:53:00,18.5,8.0,30.36,ESE,112,0.0,1.4,63,0.00,CLR,,0.12,WeatherDisplay:10.37,2013-03-08 05:53:00,
2013-03-07 23:58:00,18.0,7.5,30.36,SE,135,0.0,0.0,63,0.00,RA,,0.00,WeatherDisplay:10.37,2013-03-08 05:58:00,